createdAt,value
2023-03-21T00:01:53.975Z,15.20
2023-03-21T00:04:24.877Z,16.40
2023-03-21T00:06:54.138Z,14.40
2023-03-21T00:09:22.469Z,38.90
2023-03-21T00:11:53.708Z,16.60
2023-03-21T00:14:23.804Z,13.60
2023-03-21T00:16:53.738Z,15.60
2023-03-21T00:19:26.937Z,40.10
2023-03-21T00:22:06.900Z,16.60
2023-03-21T00:24:36.942Z,14.90
2023-03-21T00:29:57.110Z,16.40
2023-03-21T00:32:28.870Z,15.80
2023-03-21T00:35:23.303Z,16.90
2023-03-21T00:37:49.284Z,17.00
2023-03-21T00:40:28.065Z,16.00
2023-03-21T00:42:59.152Z,10.90
2023-03-21T00:45:28.156Z,13.10
2023-03-21T00:47:56.668Z,13.00
2023-03-21T00:50:30.124Z,34.20
2023-03-21T00:52:58.917Z,11.70
2023-03-21T00:55:28.524Z,31.70
2023-03-21T00:58:02.156Z,13.30
2023-03-21T01:00:31.348Z,14.00
2023-03-21T01:03:17.680Z,31.40
2023-03-21T01:06:04.715Z,12.70
2023-03-21T01:08:52.243Z,11.60
2023-03-21T01:11:23.554Z,16.50
2023-03-21T01:13:59.620Z,16.00
2023-03-21T01:16:32.879Z,14.20
2023-03-21T01:19:03.336Z,18.70
2023-03-21T01:21:33.231Z,16.10
2023-03-21T01:24:02.192Z,35.70
2023-03-21T01:26:30.668Z,12.70
2023-03-21T01:28:59.167Z,10.60
2023-03-21T01:31:28.479Z,30.60
2023-03-21T01:33:56.852Z,10.40
2023-03-21T01:36:26.731Z,33.90
2023-03-21T01:39:00.331Z,16.80
2023-03-21T01:41:42.851Z,17.80
2023-03-21T01:44:20.872Z,15.00
2023-03-21T01:47:11.497Z,13.50
2023-03-21T01:49:41.797Z,34.80
2023-03-21T01:52:37.130Z,12.80
2023-03-21T01:55:12.529Z,15.20
2023-03-21T01:58:04.885Z,17.00
2023-03-21T02:00:46.746Z,16.70
2023-03-21T02:03:36.024Z,15.20
2023-03-21T02:06:34.359Z,15.70
2023-03-21T02:09:12.673Z,13.00
2023-03-21T02:11:41.137Z,14.80
2023-03-21T02:14:15.342Z,33.80
2023-03-21T02:17:01.848Z,12.50
2023-03-21T02:19:53.286Z,11.00
2023-03-21T02:22:38.014Z,11.50
2023-03-21T02:25:21.253Z,11.00
2023-03-21T02:27:56.154Z,10.80
2023-03-21T02:30:51.711Z,14.10
2023-03-21T02:34:08.025Z,16.50
2023-03-21T02:37:36.734Z,14.30
2023-03-21T02:40:40.077Z,16.10
2023-03-21T02:43:22.677Z,14.10
2023-03-21T02:46:03.760Z,15.50
2023-03-21T02:48:50.354Z,15.60
2023-03-21T02:51:21.572Z,14.30
2023-03-21T02:54:19.965Z,13.40
2023-03-21T02:56:43.404Z,14.40
2023-03-21T02:59:11.579Z,14.60
2023-03-21T03:01:40.748Z,14.80
2023-03-21T03:04:23.672Z,35.10
2023-03-21T03:06:58.833Z,12.30
2023-03-21T03:09:27.478Z,9.30
2023-03-21T03:12:01.921Z,11.90
2023-03-21T03:15:02.194Z,33.10
2023-03-21T03:17:39.137Z,11.30
2023-03-21T03:20:17.515Z,15.20
2023-03-21T03:22:56.289Z,14.80
2023-03-21T03:25:41.698Z,14.60
2023-03-21T03:28:11.591Z,12.20
2023-03-21T03:30:48.836Z,15.70
2023-03-21T03:33:26.068Z,15.40
2023-03-21T03:36:04.959Z,13.20
2023-03-21T03:38:35.607Z,13.50
2023-03-21T03:41:19.527Z,13.40
2023-03-21T03:43:55.714Z,14.30
2023-03-21T03:46:35.192Z,13.20
2023-03-21T03:49:15.925Z,13.30
2023-03-21T03:51:49.152Z,15.00
2023-03-21T03:54:39.610Z,11.40
2023-03-21T03:57:08.416Z,9.40
2023-03-21T03:59:38.215Z,11.40
2023-03-21T04:02:15.095Z,10.00
2023-03-21T04:04:44.935Z,10.10
2023-03-21T04:07:13.218Z,9.50
2023-03-21T04:09:44.882Z,13.50
2023-03-21T04:12:16.105Z,11.60
2023-03-21T04:14:56.979Z,11.50
2023-03-21T04:17:35.002Z,9.00
2023-03-21T04:20:12.074Z,11.80
2023-03-21T04:22:44.831Z,11.90
2023-03-21T04:25:18.923Z,14.80
2023-03-21T04:27:56.644Z,14.10
2023-03-21T04:30:44.975Z,13.40
2023-03-21T04:33:20.128Z,12.90
2023-03-21T04:35:56.838Z,13.10
2023-03-21T04:38:30.861Z,15.30
2023-03-21T04:41:02.296Z,14.50
2023-03-21T04:43:32.244Z,15.20
2023-03-21T04:46:00.782Z,12.60
2023-03-21T04:48:29.308Z,9.50
2023-03-21T04:50:57.564Z,8.50
2023-03-21T04:53:26.209Z,9.90
2023-03-21T04:55:55.646Z,30.90
2023-03-21T04:58:24.298Z,11.80
2023-03-21T05:00:53.165Z,9.70
2023-03-21T05:03:22.689Z,13.40
2023-03-21T05:05:51.289Z,30.60
2023-03-21T05:08:20.544Z,12.80
2023-03-21T05:10:52.755Z,14.30
2023-03-21T05:15:57.494Z,12.70
2023-03-21T05:18:26.983Z,31.80
2023-03-21T05:21:10.822Z,12.00
2023-03-21T05:23:39.727Z,9.10
2023-03-21T05:26:09.114Z,29.10
2023-03-21T05:28:57.565Z,9.10
2023-03-21T05:31:26.687Z,30.60
2023-03-21T05:34:05.498Z,13.50
2023-03-21T05:36:40.229Z,33.20
2023-03-21T05:39:10.565Z,15.30
2023-03-21T05:41:42.467Z,14.40
2023-03-21T05:44:11.026Z,15.50
2023-03-21T05:46:40.564Z,34.50
2023-03-21T05:49:12.600Z,34.80
2023-03-21T05:51:42.488Z,12.10
2023-03-21T05:54:16.925Z,11.10
2023-03-21T05:56:49.628Z,32.90
2023-03-21T05:59:27.434Z,11.50
2023-03-21T06:01:57.124Z,16.40
2023-03-21T06:04:25.887Z,35.80
2023-03-21T06:06:54.682Z,37.80
2023-03-21T06:09:27.719Z,16.70
2023-03-21T06:12:00.463Z,39.10
2023-03-21T06:14:28.860Z,40.00
2023-03-21T06:17:16.994Z,15.80
2023-03-21T06:19:50.136Z,13.20
2023-03-21T06:22:31.859Z,38.70
2023-03-21T06:25:02.385Z,37.60
2023-03-21T06:27:32.810Z,40.90
2023-03-21T06:30:08.793Z,17.20
2023-03-21T06:32:44.630Z,17.10
2023-03-21T06:35:15.663Z,36.50
2023-03-21T06:37:46.395Z,35.60
2023-03-21T06:40:15.099Z,37.50
2023-03-21T06:42:43.685Z,34.70
2023-03-21T06:45:12.436Z,31.80
2023-03-21T06:47:41.818Z,32.30
2023-03-21T06:50:19.850Z,35.00
2023-03-21T06:52:48.605Z,34.60
2023-03-21T06:55:19.407Z,36.10
2023-03-21T06:57:48.069Z,34.30
2023-03-21T07:00:17.398Z,35.30
2023-03-21T07:02:56.991Z,36.30
2023-03-21T07:05:27.447Z,38.00
2023-03-21T07:07:55.799Z,36.50
2023-03-21T07:10:25.907Z,34.00
2023-03-21T07:13:00.159Z,32.00
2023-03-21T07:15:40.872Z,29.60
2023-03-21T07:18:09.528Z,32.20
2023-03-21T07:20:40.760Z,32.40
2023-03-21T07:23:09.446Z,33.10
2023-03-21T07:25:38.002Z,31.50
2023-03-21T07:28:09.321Z,33.60
2023-03-21T07:30:38.016Z,34.70
2023-03-21T07:33:07.841Z,33.90
2023-03-21T07:35:37.756Z,33.10
2023-03-21T07:38:08.659Z,35.80
2023-03-21T07:40:39.579Z,31.20
2023-03-21T07:43:11.394Z,29.70
2023-03-21T07:45:42.763Z,34.30
2023-03-21T07:48:13.223Z,34.10
2023-03-21T07:50:41.597Z,33.90
2023-03-21T07:53:10.380Z,32.90
2023-03-21T07:55:40.961Z,34.40
2023-03-21T07:58:10.008Z,33.10
2023-03-21T08:00:38.891Z,32.20
2023-03-21T08:03:07.294Z,33.70
2023-03-21T08:05:41.279Z,30.80
2023-03-21T08:08:10.478Z,33.80
2023-03-21T08:10:38.848Z,30.20
2023-03-21T08:13:08.987Z,29.90
2023-03-21T08:15:42.574Z,31.00
2023-03-21T08:18:11.428Z,32.60
2023-03-21T08:20:42.000Z,30.80
2023-03-21T08:23:11.113Z,30.00
2023-03-21T08:25:39.882Z,30.20
2023-03-21T08:28:08.269Z,30.20
2023-03-21T08:30:36.861Z,29.80
2023-03-21T08:33:05.045Z,30.00
2023-03-21T08:35:34.358Z,28.90
2023-03-21T08:38:04.041Z,27.90
2023-03-21T08:40:32.832Z,29.90
2023-03-21T08:43:01.203Z,28.90
2023-03-21T08:45:30.811Z,27.90
2023-03-21T08:48:02.853Z,31.80
2023-03-21T08:50:32.013Z,32.80
2023-03-21T08:53:00.375Z,31.70
2023-03-21T08:55:28.843Z,31.20
2023-03-21T08:57:58.337Z,32.80
2023-03-21T09:00:27.442Z,35.60
2023-03-21T09:02:56.193Z,30.00
2023-03-21T09:05:26.866Z,31.80
2023-03-21T09:07:55.078Z,34.60
2023-03-21T09:10:23.416Z,33.00
2023-03-21T09:12:55.987Z,32.60
2023-03-21T09:15:28.839Z,30.20
2023-03-21T09:17:58.992Z,27.00
2023-03-21T09:20:33.197Z,23.60
2023-03-21T09:23:02.110Z,25.30
2023-03-21T09:25:35.208Z,24.30
2023-03-21T09:28:05.530Z,25.40
2023-03-21T09:30:34.712Z,25.70
2023-03-21T09:33:08.896Z,24.80
2023-03-21T09:35:37.680Z,24.00
2023-03-21T09:38:07.139Z,25.40
2023-03-21T09:41:00.100Z,23.40
2023-03-21T09:43:39.937Z,23.50
2023-03-21T09:46:12.426Z,23.60
2023-03-21T09:48:56.400Z,22.70
2023-03-21T09:51:37.420Z,24.30
2023-03-21T09:54:08.876Z,23.90
2023-03-21T09:56:37.359Z,22.00
2023-03-21T09:59:07.372Z,21.90
2023-03-21T10:01:42.107Z,21.40
2023-03-21T10:04:15.522Z,21.80
2023-03-21T10:06:45.873Z,22.60
2023-03-21T10:09:32.681Z,23.00
2023-03-21T10:12:14.872Z,22.40
2023-03-21T10:14:44.648Z,21.90
2023-03-21T10:17:22.245Z,22.20
2023-03-21T10:20:12.141Z,19.60
2023-03-21T10:22:44.909Z,19.20
2023-03-21T10:25:34.180Z,18.20
2023-03-21T10:28:03.689Z,19.90
2023-03-21T10:30:53.275Z,20.20
2023-03-21T10:33:42.692Z,20.20
2023-03-21T10:36:31.796Z,19.80
2023-03-21T10:39:07.448Z,19.90
2023-03-21T10:41:36.236Z,21.50
2023-03-21T10:44:17.035Z,19.10
2023-03-21T10:46:56.160Z,21.60
2023-03-21T10:49:26.977Z,21.00
2023-03-21T10:51:58.222Z,22.00
2023-03-21T10:54:29.367Z,22.60
2023-03-21T10:56:58.356Z,21.00
2023-03-21T10:59:28.027Z,20.20
2023-03-21T11:01:56.731Z,22.50
2023-03-21T11:04:28.112Z,22.10
2023-03-21T11:07:01.465Z,22.20
2023-03-21T11:09:53.521Z,21.10
2023-03-21T11:12:41.163Z,21.80
2023-03-21T11:15:33.920Z,20.60
2023-03-21T11:18:18.488Z,20.30
2023-03-21T11:20:51.669Z,20.10
2023-03-21T11:23:21.245Z,21.80
2023-03-21T11:25:51.000Z,22.50
2023-03-21T11:28:23.059Z,20.90
2023-03-21T11:30:57.990Z,21.40
2023-03-21T11:33:53.940Z,20.60
2023-03-21T11:36:22.601Z,22.60
2023-03-21T11:38:53.404Z,20.70
2023-03-21T11:41:32.466Z,22.80
2023-03-21T11:44:29.730Z,21.70
2023-03-21T11:46:58.515Z,20.80
2023-03-21T11:49:33.012Z,21.30
2023-03-21T11:52:16.301Z,20.90
2023-03-21T11:55:03.732Z,20.20
2023-03-21T11:58:20.194Z,20.20
2023-03-21T12:00:57.342Z,20.60
2023-03-21T12:03:47.649Z,22.20
2023-03-21T12:06:36.628Z,20.40
2023-03-21T12:09:32.359Z,20.90
2023-03-21T12:12:09.438Z,21.80
2023-03-21T12:14:48.942Z,22.30
2023-03-21T12:17:39.375Z,22.20
2023-03-21T12:20:21.506Z,23.20
2023-03-21T12:23:06.603Z,22.70
2023-03-21T12:25:40.119Z,21.40
2023-03-21T12:28:31.743Z,21.40
2023-03-21T12:31:16.924Z,20.70
2023-03-21T12:33:48.837Z,21.20
2023-03-21T12:36:41.753Z,21.20
2023-03-21T12:39:12.595Z,22.50
2023-03-21T12:41:44.857Z,21.80
2023-03-21T12:44:17.548Z,21.00
2023-03-21T12:46:58.856Z,21.50
2023-03-21T12:49:33.351Z,20.80
2023-03-21T12:52:11.360Z,21.20
2023-03-21T12:55:00.388Z,20.40
2023-03-21T12:57:47.764Z,21.50
2023-03-21T13:00:26.010Z,19.50
2023-03-21T13:02:58.900Z,21.20
2023-03-21T13:05:39.303Z,22.00
2023-03-21T13:08:24.268Z,20.50
2023-03-21T13:10:52.646Z,20.80
2023-03-21T13:13:39.407Z,21.20
2023-03-21T13:16:29.490Z,22.00
2023-03-21T13:19:04.276Z,20.70
2023-03-21T13:21:59.278Z,22.30
2023-03-21T13:24:38.416Z,21.40
2023-03-21T13:27:15.084Z,22.90
2023-03-21T13:29:47.903Z,22.80
2023-03-21T13:32:28.272Z,21.90
2023-03-21T13:34:58.433Z,22.90
2023-03-21T13:37:34.727Z,21.80
2023-03-21T13:40:14.421Z,24.10
2023-03-21T13:42:45.914Z,23.70
2023-03-21T13:45:24.962Z,24.20
2023-03-21T13:48:00.682Z,23.60
2023-03-21T13:50:52.997Z,22.90
2023-03-21T13:53:22.609Z,23.00
2023-03-21T13:56:09.100Z,21.70
2023-03-21T13:58:51.401Z,20.20
2023-03-21T14:01:31.852Z,21.50
2023-03-21T14:04:20.826Z,20.50
2023-03-21T14:06:57.607Z,23.60
2023-03-21T14:09:29.999Z,23.80
2023-03-21T14:12:03.929Z,22.40
2023-03-21T14:14:42.107Z,24.50
2023-03-21T14:17:26.612Z,23.30
2023-03-21T14:20:12.299Z,24.00
2023-03-21T14:22:47.606Z,23.90
2023-03-21T14:25:17.724Z,23.90
2023-03-21T14:27:49.312Z,22.60
2023-03-21T14:30:29.413Z,21.60
2023-03-21T14:32:59.027Z,21.60
2023-03-21T14:35:31.659Z,18.10
2023-03-21T14:38:07.539Z,17.70
2023-03-21T14:40:38.498Z,15.20
2023-03-21T14:43:06.968Z,16.50
2023-03-21T14:45:37.419Z,15.90
2023-03-21T14:48:13.936Z,15.30
2023-03-21T14:50:45.169Z,15.00
2023-03-21T14:53:21.549Z,14.70
2023-03-21T14:56:02.307Z,15.90
2023-03-21T14:58:34.318Z,14.40
2023-03-21T15:01:04.496Z,15.10
2023-03-21T15:03:32.677Z,15.40
2023-03-21T15:06:05.859Z,15.00
2023-03-21T15:08:34.856Z,14.80
2023-03-21T15:11:07.528Z,14.70
2023-03-21T15:13:42.058Z,16.30
2023-03-21T15:16:11.406Z,16.40
2023-03-21T15:18:39.633Z,16.50
2023-03-21T15:21:13.401Z,17.40
2023-03-21T15:23:46.021Z,16.50
2023-03-21T15:26:22.588Z,17.20
2023-03-21T15:28:51.943Z,17.70
2023-03-21T15:31:21.821Z,17.60
2023-03-21T15:33:51.680Z,18.10
2023-03-21T15:36:22.283Z,18.10
2023-03-21T15:38:51.359Z,20.20
2023-03-21T15:41:19.927Z,20.00
2023-03-21T15:43:49.538Z,21.60
2023-03-21T15:46:48.486Z,21.60
2023-03-21T15:49:16.732Z,21.90
2023-03-21T15:52:07.473Z,20.50
2023-03-21T15:54:42.354Z,21.50
2023-03-21T15:57:30.130Z,21.40
2023-03-21T16:00:12.012Z,21.10
2023-03-21T16:02:41.411Z,23.00
2023-03-21T16:05:27.581Z,21.80
2023-03-21T16:08:03.074Z,22.70
2023-03-21T16:10:37.577Z,22.30
2023-03-21T16:13:06.780Z,20.70
2023-03-21T16:15:34.888Z,21.60
2023-03-21T16:18:04.738Z,22.10
2023-03-21T16:20:41.620Z,22.20
2023-03-21T16:23:11.682Z,22.90
2023-03-21T16:25:44.551Z,24.80
2023-03-21T16:28:14.594Z,25.20
2023-03-21T16:30:43.234Z,26.20
2023-03-21T16:33:13.125Z,29.00
2023-03-21T16:35:42.174Z,28.70
2023-03-21T16:38:11.834Z,29.50
2023-03-21T16:40:43.592Z,29.80
2023-03-21T16:43:12.183Z,30.30
2023-03-21T16:45:42.150Z,30.00
2023-03-21T16:48:16.561Z,31.20
2023-03-21T16:50:48.269Z,30.30
2023-03-21T16:53:17.165Z,31.70
2023-03-21T16:55:46.687Z,30.90
2023-03-21T16:58:21.818Z,32.00
2023-03-21T17:00:50.604Z,29.30
2023-03-21T17:03:19.348Z,31.20
2023-03-21T17:05:49.817Z,29.00
2023-03-21T17:08:19.722Z,28.90
2023-03-21T17:10:48.218Z,29.40
2023-03-21T17:13:17.003Z,28.30
2023-03-21T17:15:45.115Z,27.70
2023-03-21T17:18:16.634Z,25.90
2023-03-21T17:20:46.955Z,26.20
2023-03-21T17:23:15.613Z,25.50
2023-03-21T17:25:44.832Z,24.40
2023-03-21T17:28:13.220Z,24.70
2023-03-21T17:33:46.833Z,23.60
2023-03-21T17:36:17.051Z,22.40
2023-03-21T17:38:48.446Z,23.30
2023-03-21T17:41:17.914Z,22.60
2023-03-21T17:43:46.492Z,20.50
2023-03-21T17:46:16.703Z,18.60
2023-03-21T17:48:45.145Z,16.70
2023-03-21T17:51:16.134Z,16.10
2023-03-21T17:53:48.582Z,16.30
2023-03-21T17:56:23.007Z,15.70
2023-03-21T17:58:51.319Z,14.70
2023-03-21T18:01:19.819Z,16.70
2023-03-21T18:03:48.167Z,17.80
2023-03-21T18:06:18.498Z,17.10
2023-03-21T18:08:47.433Z,16.30
2023-03-21T18:11:16.586Z,16.80
2023-03-21T18:13:45.214Z,17.00
2023-03-21T18:16:16.218Z,16.90
2023-03-21T18:18:46.946Z,16.70
2023-03-21T18:21:18.985Z,18.00
2023-03-21T18:23:48.799Z,19.40
2023-03-21T18:26:19.732Z,20.90
2023-03-21T18:29:36.789Z,20.50
2023-03-21T18:31:45.270Z,22.10
2023-03-21T18:34:15.520Z,22.30
2023-03-21T18:36:44.238Z,23.00
2023-03-21T18:39:13.417Z,23.00
2023-03-21T18:41:42.596Z,22.80
2023-03-21T18:44:15.904Z,23.00
2023-03-21T18:46:51.166Z,21.60
2023-03-21T18:52:10.837Z,22.90
2023-03-21T18:54:41.066Z,24.50
2023-03-21T18:59:59.605Z,23.00
2023-03-21T19:02:27.703Z,22.50
2023-03-21T19:04:57.950Z,21.90
2023-03-21T19:07:26.510Z,21.00
2023-03-21T19:10:16.056Z,22.80
2023-03-21T19:12:43.750Z,23.30
2023-03-21T19:15:13.559Z,24.50
2023-03-21T19:20:32.623Z,25.50
2023-03-21T19:23:01.434Z,24.10
2023-03-21T19:25:29.623Z,23.30
2023-03-21T19:27:58.309Z,25.00
2023-03-21T19:30:27.812Z,26.50
2023-03-21T19:32:57.199Z,25.60
2023-03-21T19:35:25.914Z,26.50
2023-03-21T19:37:54.365Z,21.40
2023-03-21T19:40:22.746Z,19.60
2023-03-21T19:42:51.471Z,23.00
2023-03-21T19:45:21.760Z,23.60
2023-03-21T19:47:50.178Z,26.30
2023-03-21T19:53:07.151Z,28.40
2023-03-21T19:55:36.533Z,28.10
2023-03-21T19:58:07.442Z,31.00
2023-03-21T20:00:38.347Z,30.90
2023-03-21T20:03:08.988Z,30.30
2023-03-21T20:05:39.932Z,29.20
2023-03-21T20:08:10.894Z,26.80
2023-03-21T20:10:41.058Z,27.90
2023-03-21T20:13:10.860Z,28.20
2023-03-21T20:15:46.013Z,29.70
2023-03-21T20:18:24.226Z,29.80
2023-03-21T20:20:53.244Z,30.70
2023-03-21T20:23:21.586Z,31.60
2023-03-21T20:25:50.835Z,33.10
2023-03-21T20:28:25.909Z,32.40
2023-03-21T20:31:02.155Z,30.90
2023-03-21T20:33:31.413Z,32.50
2023-03-21T20:38:52.290Z,30.40
2023-03-21T20:41:20.955Z,29.50
2023-03-21T20:46:38.205Z,32.70
2023-03-21T20:49:09.522Z,31.80
2023-03-21T20:52:45.792Z,30.90
2023-03-21T20:54:27.979Z,29.90
2023-03-21T20:56:57.697Z,28.20
2023-03-21T20:59:28.115Z,28.20
2023-03-21T21:01:59.509Z,29.80
2023-03-21T21:04:52.780Z,28.40
2023-03-21T21:07:21.220Z,27.50
2023-03-21T21:09:54.729Z,28.00
2023-03-21T21:12:27.789Z,30.00
2023-03-21T21:14:56.910Z,29.80
2023-03-21T21:17:57.938Z,31.50
2023-03-21T21:20:20.492Z,32.50
2023-03-21T21:22:59.442Z,30.40
2023-03-21T21:25:32.122Z,31.70
2023-03-21T21:28:02.097Z,32.30
2023-03-21T21:30:38.195Z,30.50
2023-03-21T21:33:07.163Z,31.00
2023-03-21T21:35:36.098Z,29.40
2023-03-21T21:38:04.743Z,31.60
2023-03-21T21:40:33.235Z,30.50
2023-03-21T21:43:03.785Z,32.60
2023-03-21T21:45:32.550Z,31.00
2023-03-21T21:48:01.076Z,30.70
2023-03-21T21:50:30.752Z,31.20
2023-03-21T21:53:03.988Z,30.70
2023-03-21T21:55:34.208Z,35.40
2023-03-21T21:58:03.978Z,33.60
2023-03-21T22:00:32.748Z,32.30
2023-03-21T22:03:02.085Z,31.80
2023-03-21T22:05:31.481Z,31.30
2023-03-21T22:08:04.382Z,32.20
2023-03-21T22:10:34.256Z,31.90
2023-03-21T22:13:02.529Z,33.10
2023-03-21T22:15:36.821Z,32.40
2023-03-21T22:18:05.331Z,33.10
2023-03-21T22:20:34.142Z,32.10
2023-03-21T22:23:02.500Z,33.00
2023-03-21T22:25:33.334Z,30.30
2023-03-21T22:28:01.576Z,30.40
2023-03-21T22:30:31.117Z,31.00
2023-03-21T22:33:09.209Z,30.80
2023-03-21T22:35:39.618Z,30.10
2023-03-21T22:38:09.142Z,30.00
2023-03-21T22:40:38.103Z,31.40
2023-03-21T22:43:09.098Z,31.00
2023-03-21T22:45:37.721Z,31.50
2023-03-21T22:48:06.688Z,31.10
2023-03-21T22:50:35.574Z,32.20
2023-03-21T22:53:04.052Z,30.10
2023-03-21T22:55:32.584Z,29.90
2023-03-21T22:58:01.319Z,29.30
2023-03-21T23:00:29.800Z,29.90
2023-03-21T23:02:59.843Z,29.70
2023-03-21T23:05:28.810Z,29.50
2023-03-21T23:07:58.624Z,29.40
2023-03-21T23:10:27.821Z,31.30
2023-03-21T23:12:56.232Z,31.30
2023-03-21T23:15:24.598Z,29.50
2023-03-21T23:17:52.943Z,30.20
2023-03-21T23:20:21.236Z,27.90
2023-03-21T23:22:51.852Z,28.40
2023-03-21T23:25:21.173Z,28.40
2023-03-21T23:27:49.453Z,31.60
2023-03-21T23:30:18.024Z,30.40
2023-03-21T23:32:46.406Z,29.40
2023-03-21T23:35:16.834Z,29.40
2023-03-21T23:37:52.752Z,30.00
2023-03-21T23:40:21.342Z,30.30
2023-03-21T23:42:49.757Z,27.10
2023-03-21T23:45:18.105Z,28.80
2023-03-21T23:47:47.826Z,28.80
2023-03-21T23:50:16.639Z,27.40
2023-03-21T23:52:49.904Z,29.40
2023-03-21T23:55:18.443Z,28.90
2023-03-21T23:57:46.917Z,29.50
